To NAV CANADA Home Page Login to a new session Search on AWWS site Feedback and Comments Disclaimer Vers la page française équivalente Tips FAQ What's new on the site To the Forecasts and Observations / NOTAM section To "File a Flight Plan" website Publications and other links Update of the User's profile FIC Telephone Numbers My Weather Data Folder Route Weather Data Regional Weather Data Local Weather Data To the Forecasts and Observations / NOTAM section
Request Generated 08/22/2017 at 03:32:52 UTC . Weather information available at that time is displayed.

METAR/TAF

COLD LAKE/GROUP CAPTAIN R.W. MCNAIR/AB    

METAR CYOD 220300Z 18003KT 15SM FEW160 BKN210 16/09 A3006 RMK AC2CI2 SLP190=
METAR CYOD 220200Z 25002KT 15SM FEW040 FEW070 BKN230 18/08 A3006 RMK CU1AC2CI2 SLP190=
METAR CYOD 220100Z 25007KT 15SM FEW060 SCT250 20/07 A3006 RMK CU1CI2 SLP190=

TAF CYOD 220230Z 2203/2224 VRB03KT P6SM FEW060 BKN250
BECMG 2203/2205 SCT060 BKN080
RMK NXT FCST BY 220600Z=
Your time UTC time
Weather data provided by Environment Canada and NAV CANADA